Time;durP1;ratioP1;P1;durP2;ratioP2;P2;SDS_P1;SDS_P2;PMS_P1;PMS_P2;Temp;Humidity;BMP_temperature;BMP_pressure;BME280_temperature;BME280_humidity;BME280_pressure;Samples;Min_cycle;Max_cycle;Signal;HPM_P1;HPM_P2
2022/12/19 00:00:47;;;;;;;;;;;-1.00;99.90;;;-2.22;100.00;98155.63;5054760;28;19923;-40
2022/12/19 00:03:13;;;;;;;;;;;-1.00;99.90;;;-2.23;100.00;98168.50;5049377;28;19947;-40
2022/12/19 00:05:39;;;;;;;;;;;-1.10;99.90;;;-2.22;100.00;98175.44;5056325;28;19964;-40
2022/12/19 00:08:08;;;;;;;;;;;-1.10;99.90;;;-2.24;100.00;98190.91;5051979;28;19947;-40
2022/12/19 00:10:34;;;;;;;;;;;-1.10;99.90;;;-2.27;100.00;98183.06;5053373;28;19917;-40
2022/12/19 00:13:00;;;;;;;;;;;-1.10;99.90;;;-2.33;100.00;98180.31;5051966;28;19924;-40
2022/12/19 00:15:25;;;;;;;;;;;-1.20;99.90;;;-2.35;100.00;98172.53;5052594;28;20429;-40
2022/12/19 00:17:51;;;;;;;;;;;-1.20;99.90;;;-2.29;100.00;98176.97;5050769;28;19917;-40
2022/12/19 00:20:17;;;;;;;;;;;-1.10;99.90;;;-2.35;100.00;98161.28;5052617;28;20668;-40
2022/12/19 00:22:43;;;;;;;;;;;-1.20;99.90;;;-2.26;100.00;98158.06;5051259;28;19917;-40
2022/12/19 00:25:09;;;;;;;;;;;-1.10;99.90;;;-2.23;100.00;98155.59;5050788;28;19986;-40
2022/12/19 00:27:35;;;;;;;;;;;-1.10;99.90;;;-2.24;100.00;98152.13;5051642;28;20476;-40
2022/12/19 00:30:00;;;;;;;;;;;-1.10;99.90;;;-2.24;100.00;98136.63;5051890;28;19932;-40
2022/12/19 00:32:26;;;;;;;;;;;-1.00;99.90;;;-2.07;100.00;98154.28;5042627;28;19916;-40
2022/12/19 00:34:52;;;;;;;;;;;-1.00;99.90;;;-2.05;100.00;98155.19;5050691;28;19956;-40
2022/12/19 00:37:17;;;;;;;;;;;-0.90;99.90;;;-2.04;100.00;98144.88;5052691;28;19979;-40
2022/12/19 00:39:43;;;;;;;;;;;-0.90;99.90;;;-2.16;100.00;98122.19;5053431;28;19981;-40
2022/12/19 00:42:09;;;;;;;;;;;-0.90;99.90;;;-2.02;100.00;98139.75;5051376;28;20347;-40
2022/12/19 00:44:34;;;;;;;;;;;-0.90;99.90;;;-1.98;100.00;98138.97;5052026;28;19956;-40
2022/12/19 00:47:00;;;;;;;;;;;-0.80;99.90;;;-1.98;100.00;98119.16;5050189;28;20024;-40
2022/12/19 00:49:26;;;;;;;;;;;-0.80;99.90;;;-1.97;100.00;98126.09;5054404;28;20807;-40
2022/12/19 00:51:51;;;;;;;;;;;-0.80;99.90;;;-1.95;100.00;98131.31;5052629;28;19942;-40
2022/12/19 00:54:17;;;;;;;;;;;-0.80;99.90;;;-1.95;100.00;98119.25;5045787;28;19958;-40
2022/12/19 00:56:42;;;;;;;;;;;-0.80;99.90;;;-1.95;100.00;98121.84;5049111;28;20300;-40
2022/12/19 00:59:09;;;;;;;;;;;-0.80;99.90;;;-1.92;100.00;98109.00;5050360;28;21979;-40
2022/12/19 01:01:37;;;;;;;;;;;-0.80;99.90;;;-1.90;100.00;98116.78;5043155;28;19920;-40
2022/12/19 01:04:05;;;;;;;;;;;-0.80;99.90;;;-1.88;100.00;98111.63;5048639;28;19972;-40
2022/12/19 01:06:31;;;;;;;;;;;-0.80;99.90;;;-1.84;100.00;98113.47;5045672;28;19963;-40
2022/12/19 01:08:56;;;;;;;;;;;-0.80;99.90;;;-1.85;100.00;98109.13;5048388;28;20097;-40
2022/12/19 01:12:44;;;;;;;;;;;-0.70;99.90;;;-1.90;100.00;98101.28;5049848;28;19995;-40
2022/12/19 01:14:10;;;;;;;;;;;-0.80;99.90;;;-1.89;100.00;98112.47;5045135;28;20269;-40
2022/12/19 01:16:35;;;;;;;;;;;-0.80;99.90;;;-1.92;100.00;98105.50;5051301;28;19924;-40
2022/12/19 01:19:01;;;;;;;;;;;-0.70;99.90;;;-1.89;100.00;98103.00;5053099;28;19916;-40
2022/12/19 01:21:26;;;;;;;;;;;-0.70;99.90;;;-1.87;100.00;98093.56;5048779;28;20012;-39
2022/12/19 01:23:52;;;;;;;;;;;-0.70;99.90;;;-1.87;100.00;98106.50;5048543;28;19920;-40
2022/12/19 01:26:18;;;;;;;;;;;-0.80;99.90;;;-1.96;100.00;98086.47;5042428;28;19948;-40
2022/12/19 01:28:43;;;;;;;;;;;-0.70;99.90;;;-1.82;100.00;98109.19;5045444;28;20040;-40
2022/12/19 01:31:09;;;;;;;;;;;-0.70;99.90;;;-1.78;100.00;98100.66;5047620;28;20003;-41
2022/12/19 01:33:35;;;;;;;;;;;-0.70;99.90;;;-1.72;100.00;98095.66;5051137;28;19920;-41
2022/12/19 01:36:06;;;;;;;;;;;-0.60;99.90;;;-1.67;100.00;98098.31;5047515;28;20350;-40
2022/12/19 01:38:35;;;;;;;;;;;-0.60;99.90;;;-1.63;100.00;98095.00;5050573;28;19924;-39
2022/12/19 01:41:01;;;;;;;;;;;-0.50;99.90;;;-1.58;100.00;98098.53;5044495;28;20364;-41
2022/12/19 01:43:32;;;;;;;;;;;-0.50;99.90;;;-1.59;100.00;98087.31;5048116;28;19963;-41
2022/12/19 01:46:01;;;;;;;;;;;-0.40;99.90;;;-1.55;100.00;98083.94;5041451;28;19924;-41
2022/12/19 01:48:32;;;;;;;;;;;-0.40;99.90;;;-1.50;100.00;98086.66;5026265;28;20384;-41
2022/12/19 01:51:00;;;;;;;;;;;-0.40;99.90;;;-1.51;100.00;98066.78;5065297;22;19943;-37
2022/12/19 01:53:30;;;;;;;;;;;-0.30;99.90;;;-1.48;100.00;98082.38;5047257;28;19924;-37
2022/12/19 01:55:56;;;;;;;;;;;-0.40;99.90;;;-1.45;100.00;98074.69;5048975;28;19925;-37
2022/12/19 01:58:22;;;;;;;;;;;-0.30;99.90;;;-1.48;100.00;98061.69;5053166;28;19923;-37
2022/12/19 02:00:48;;;;;;;;;;;-0.40;99.90;;;-1.45;100.00;98056.56;5062138;28;19927;-37
2022/12/19 02:03:19;;;;;;;;;;;-0.40;99.90;;;-1.39;100.00;98059.28;5074956;28;19920;-36
2022/12/19 02:05:45;;;;;;;;;;;-0.30;99.90;;;-1.38;100.00;98062.75;5070988;28;19947;-36
2022/12/19 02:08:11;;;;;;;;;;;-0.30;99.90;;;-1.36;100.00;98046.41;5064693;28;20015;-36
2022/12/19 02:10:37;;;;;;;;;;;-0.30;99.90;;;-1.31;100.00;98059.47;5068294;28;19932;-37
2022/12/19 02:13:03;;;;;;;;;;;-0.20;99.90;;;-1.35;100.00;98052.44;5066610;28;19917;-36
2022/12/19 02:19:18;;;;;;;;;;;-0.20;99.90;;;-1.45;100.00;98028.13;5044389;28;19931;-37
2022/12/19 02:21:51;;;;;;;;;;;-0.20;99.90;;;-1.40;100.00;98031.69;5057918;28;19924;-37
2022/12/19 02:24:59;;;;;;;;;;;-0.20;99.90;;;-1.28;100.00;98046.56;5055804;28;20097;-37
2022/12/19 02:27:37;;;;;;;;;;;-0.20;99.90;;;-1.21;100.00;98039.81;5036033;28;19932;-37
2022/12/19 02:30:09;;;;;;;;;;;-0.20;99.90;;;-1.17;100.00;98046.78;5067135;28;20406;-37
2022/12/19 02:32:56;;;;;;;;;;;-0.10;99.90;;;-1.15;100.00;98050.25;5074223;28;19928;-37
2022/12/19 02:35:33;;;;;;;;;;;-0.10;99.90;;;-1.16;100.00;98051.13;5066371;28;19920;-37
2022/12/19 02:38:14;;;;;;;;;;;0.00;99.90;;;-1.10;100.00;98047.78;5045998;28;19924;-37
2022/12/19 02:41:02;;;;;;;;;;;-0.10;99.90;;;-1.08;100.00;98035.72;5061289;28;20180;-37
2022/12/19 02:43:30;;;;;;;;;;;0.00;99.90;;;-1.03;100.00;98041.88;5063134;28;20490;-37
2022/12/19 02:45:56;;;;;;;;;;;0.00;99.90;;;-1.02;100.00;98034.13;5062497;28;19922;-37
2022/12/19 02:48:22;;;;;;;;;;;0.10;99.90;;;-1.00;100.00;98037.63;5065622;28;21417;-37
2022/12/19 02:50:47;;;;;;;;;;;0.10;99.90;;;-1.03;100.00;98034.97;5065990;28;19948;-37
2022/12/19 02:53:14;;;;;;;;;;;0.10;99.90;;;-0.97;100.00;98040.28;5067973;28;20685;-37
2022/12/19 02:55:50;;;;;;;;;;;0.10;99.90;;;-0.93;100.00;98030.84;5068575;28;19998;-37
2022/12/19 02:58:49;;;;;;;;;;;0.20;99.90;;;-0.89;100.00;98052.50;5063605;28;20614;-37
2022/12/19 03:01:41;;;;;;;;;;;0.20;99.90;;;-0.85;100.00;98062.06;5066993;28;20003;-37
2022/12/19 03:04:11;;;;;;;;;;;0.20;99.90;;;-0.82;100.00;98065.59;5057627;28;20307;-37
2022/12/19 03:06:48;;;;;;;;;;;0.30;99.90;;;-0.80;100.00;98045.75;5070317;28;19946;-37
2022/12/19 03:09:25;;;;;;;;;;;0.30;99.90;;;-0.79;100.00;98028.50;5060425;28;20076;-37
2022/12/19 03:11:59;;;;;;;;;;;0.40;99.90;;;-0.77;100.00;98024.25;5066034;28;20210;-37
2022/12/19 03:14:25;;;;;;;;;;;0.30;99.90;;;-0.76;100.00;98033.75;5057487;28;20370;-37
2022/12/19 03:16:51;;;;;;;;;;;0.30;99.90;;;-0.75;100.00;98040.69;5060814;28;19930;-37
2022/12/19 03:19:16;;;;;;;;;;;0.30;99.90;;;-0.71;100.00;98049.38;5059617;28;20520;-36
2022/12/19 03:21:44;;;;;;;;;;;0.40;99.90;;;-0.81;100.00;98025.00;5061733;28;20613;-37
2022/12/19 03:24:11;;;;;;;;;;;0.40;99.90;;;-0.68;100.00;98045.13;5055106;28;19927;-37
2022/12/19 03:26:42;;;;;;;;;;;0.40;99.90;;;-0.58;100.00;98062.56;5064143;28;19923;-37
2022/12/19 03:29:38;;;;;;;;;;;0.50;99.90;;;-0.60;100.00;98068.56;5065213;28;19928;-37
2022/12/19 03:32:06;;;;;;;;;;;0.50;99.90;;;-0.55;100.00;98081.63;5036871;28;20250;-37
2022/12/19 03:34:39;;;;;;;;;;;0.50;99.90;;;-0.48;100.00;98079.16;5056734;28;19923;-37
2022/12/19 03:37:06;;;;;;;;;;;0.60;99.90;;;-0.54;100.00;98058.31;5062444;28;19924;-37
2022/12/19 03:39:33;;;;;;;;;;;0.60;99.90;;;-0.44;100.00;98069.72;5061750;28;19924;-37
2022/12/19 03:44:44;;;;;;;;;;;0.60;99.90;;;-0.48;100.00;98053.25;5057266;28;19931;-37
2022/12/19 03:47:23;;;;;;;;;;;0.60;99.90;;;-0.41;100.00;98064.59;5065223;28;19924;-37
2022/12/19 03:49:49;;;;;;;;;;;0.60;99.90;;;-0.39;100.00;98055.13;5070481;28;19951;-37
2022/12/19 03:52:33;;;;;;;;;;;0.70;99.90;;;-0.38;100.00;98064.63;5073526;28;20591;-37
2022/12/19 03:55:27;;;;;;;;;;;0.70;99.90;;;-0.40;100.00;98056.81;5083196;27;19931;-37
2022/12/19 03:57:58;;;;;;;;;;;0.70;99.90;;;-0.35;100.00;98061.22;5055999;28;20371;-37
2022/12/19 04:00:24;;;;;;;;;;;0.70;99.90;;;-0.35;100.00;98056.03;5066331;28;19924;-37
2022/12/19 04:02:51;;;;;;;;;;;0.70;99.90;;;-0.35;100.00;98054.31;5067051;28;19923;-37
2022/12/19 04:05:20;;;;;;;;;;;0.70;99.90;;;-0.39;100.00;98047.34;5068599;28;19920;-37
2022/12/19 04:07:46;;;;;;;;;;;0.70;99.90;;;-0.30;100.00;98057.00;5061011;28;19931;-37
2022/12/19 04:10:15;;;;;;;;;;;0.70;99.90;;;-0.32;100.00;98056.97;5054919;28;20295;-37
2022/12/19 04:12:45;;;;;;;;;;;0.70;99.90;;;-0.31;100.00;98055.25;5068231;28;19916;-37
2022/12/19 04:15:10;;;;;;;;;;;0.80;99.90;;;-0.27;100.00;98067.41;5065175;28;19912;-37
2022/12/19 04:17:55;;;;;;;;;;;0.80;99.90;;;-0.27;100.00;98065.69;5064920;28;19920;-37
2022/12/19 04:20:24;;;;;;;;;;;0.80;99.90;;;-0.24;100.00;98070.03;5065886;28;19924;-37
2022/12/19 04:22:55;;;;;;;;;;;0.80;99.90;;;-0.22;100.00;98070.94;5064482;28;19924;-37
2022/12/19 04:25:26;;;;;;;;;;;0.80;99.90;;;-0.17;100.00;98060.66;5067575;28;20054;-37
2022/12/19 04:27:56;;;;;;;;;;;0.90;99.90;;;-0.14;100.00;98071.06;5068830;28;20433;-37
2022/12/19 04:30:22;;;;;;;;;;;0.90;99.90;;;-0.12;100.00;98077.16;5067881;28;20010;-37
2022/12/19 04:32:48;;;;;;;;;;;1.00;99.90;;;-0.11;100.00;98063.34;5070384;28;19924;-37
2022/12/19 04:35:14;;;;;;;;;;;0.90;99.90;;;-0.07;100.00;98058.25;5066564;28;19920;-37
2022/12/19 04:37:40;;;;;;;;;;;1.00;99.90;;;-0.03;100.00;98064.34;5066822;28;19923;-37
2022/12/19 04:40:07;;;;;;;;;;;1.00;99.90;;;0.00;100.00;98079.97;5067300;28;20680;-37
2022/12/19 04:42:33;;;;;;;;;;;1.10;99.90;;;0.04;100.00;98070.50;5067686;28;19988;-37
2022/12/19 04:44:58;;;;;;;;;;;1.10;99.90;;;0.03;100.00;98071.34;5068413;28;19924;-37
2022/12/19 04:47:24;;;;;;;;;;;1.10;99.90;;;0.04;100.00;98065.31;5070039;28;19958;-37
2022/12/19 04:49:50;;;;;;;;;;;1.10;99.90;;;0.03;100.00;98069.63;5070374;28;20164;-37
2022/12/19 04:52:15;;;;;;;;;;;1.10;99.90;;;0.06;100.00;98069.66;5068703;28;19920;-37
2022/12/19 04:54:41;;;;;;;;;;;1.10;99.90;;;-0.04;100.00;98045.28;5068152;28;19924;-37
2022/12/19 04:57:07;;;;;;;;;;;1.10;99.90;;;0.09;100.00;98063.63;5072802;28;19917;-37
2022/12/19 04:59:32;;;;;;;;;;;1.20;99.90;;;0.13;100.00;98057.69;5070600;28;19928;-37
2022/12/19 05:01:58;;;;;;;;;;;1.20;99.90;;;0.03;100.00;98035.91;5066887;28;20119;-37
2022/12/19 05:04:23;;;;;;;;;;;1.20;99.90;;;0.24;100.00;98063.88;5069875;28;19924;-37
2022/12/19 05:06:49;;;;;;;;;;;1.30;99.90;;;0.24;100.00;98061.28;5067336;28;20018;-37
2022/12/19 05:09:15;;;;;;;;;;;1.30;99.90;;;0.26;100.00;98058.72;5066890;28;20367;-37
2022/12/19 05:11:40;;;;;;;;;;;1.30;99.90;;;0.23;100.00;98053.47;5066890;28;20184;-37
2022/12/19 05:14:06;;;;;;;;;;;1.30;99.90;;;0.27;100.00;98050.06;5068420;28;19916;-37
2022/12/19 05:16:32;;;;;;;;;;;1.30;99.90;;;0.30;100.00;98047.53;5069622;28;19916;-37
2022/12/19 05:18:58;;;;;;;;;;;1.30;99.90;;;0.34;100.00;98046.72;5065380;28;19924;-37
2022/12/19 05:21:23;;;;;;;;;;;1.30;99.90;;;0.36;100.00;98050.22;5069109;28;19966;-37
2022/12/19 05:23:50;;;;;;;;;;;1.40;99.90;;;0.36;100.00;98050.22;5065450;28;19927;-37
2022/12/19 05:26:16;;;;;;;;;;;1.40;99.90;;;0.38;100.00;98041.59;5065220;28;20057;-37
2022/12/19 05:28:41;;;;;;;;;;;1.40;99.90;;;0.39;100.00;98045.06;5064731;28;20287;-37
2022/12/19 05:31:11;;;;;;;;;;;1.40;99.90;;;0.41;100.00;98040.75;5066297;28;20432;-37
2022/12/19 05:33:38;;;;;;;;;;;1.40;99.90;;;0.40;100.00;98041.63;5064734;28;19923;-37
2022/12/19 05:36:03;;;;;;;;;;;1.40;99.90;;;0.43;100.00;98040.78;5069381;28;20544;-37
2022/12/19 05:38:29;;;;;;;;;;;1.40;99.90;;;0.42;100.00;98044.25;5067542;28;20252;-37
2022/12/19 05:40:55;;;;;;;;;;;1.50;99.90;;;0.46;100.00;98046.88;5068765;28;20576;-37
2022/12/19 05:43:20;;;;;;;;;;;1.50;99.90;;;0.46;100.00;98044.28;5065881;28;20177;-37
2022/12/19 05:45:46;;;;;;;;;;;1.50;99.90;;;0.44;100.00;98038.22;5064830;28;20019;-37
2022/12/19 05:48:12;;;;;;;;;;;1.50;99.90;;;0.46;100.00;98041.69;5069241;28;19927;-37
2022/12/19 05:50:38;;;;;;;;;;;1.50;99.90;;;0.50;100.00;98043.50;5067936;28;19924;-37
2022/12/19 05:53:03;;;;;;;;;;;1.50;99.90;;;0.52;100.00;98048.69;5069298;28;19920;-37
2022/12/19 05:55:29;;;;;;;;;;;1.60;99.90;;;0.57;100.00;98041.84;5066999;28;19924;-37
2022/12/19 05:57:55;;;;;;;;;;;1.60;99.90;;;0.57;100.00;98034.94;5063382;28;20526;-37
2022/12/19 06:00:20;;;;;;;;;;;1.60;99.90;;;0.66;100.00;98039.34;5064850;28;19971;-37
2022/12/19 06:02:46;;;;;;;;;;;1.70;99.90;;;0.73;100.00;98035.13;5066770;28;19924;-37
2022/12/19 06:05:12;;;;;;;;;;;1.70;99.90;;;0.78;100.00;98037.78;5063169;28;20329;-37
2022/12/19 06:07:38;;;;;;;;;;;1.80;99.90;;;0.79;100.00;98035.22;5062530;28;19928;-37
2022/12/19 06:10:04;;;;;;;;;;;1.80;99.90;;;0.80;100.00;98031.75;5056536;28;19986;-37
2022/12/19 06:12:30;;;;;;;;;;;1.80;99.90;;;0.83;100.00;98018.81;5066900;28;19924;-37
2022/12/19 06:14:56;;;;;;;;;;;1.80;99.90;;;0.81;100.00;98017.91;5064464;28;19919;-37
2022/12/19 06:17:21;;;;;;;;;;;1.90;99.90;;;0.86;100.00;98024.03;5062664;28;20019;-37
2022/12/19 06:19:47;;;;;;;;;;;1.90;99.90;;;0.87;100.00;98025.75;5063626;28;20384;-37
2022/12/19 06:22:13;;;;;;;;;;;1.90;99.90;;;0.85;100.00;98024.00;5061292;28;19924;-37
2022/12/19 06:24:38;;;;;;;;;;;1.90;99.90;;;0.87;100.00;98023.16;5065877;28;19924;-37
2022/12/19 06:27:04;;;;;;;;;;;1.90;99.90;;;0.88;100.00;98017.13;5063427;28;20446;-37
2022/12/19 06:29:29;;;;;;;;;;;1.90;99.90;;;0.91;100.00;98022.34;5065784;28;20578;-37
2022/12/19 06:31:55;;;;;;;;;;;1.90;99.90;;;0.92;100.00;98029.28;5065523;28;19928;-37
2022/12/19 06:34:21;;;;;;;;;;;1.90;99.90;;;0.92;100.00;98020.63;5067846;28;19920;-37
2022/12/19 06:36:47;;;;;;;;;;;2.00;99.90;;;0.94;100.00;98019.78;5068069;28;20403;-37
2022/12/19 06:39:13;;;;;;;;;;;2.00;99.90;;;0.88;100.00;98009.34;5066449;28;20022;-37
2022/12/19 06:44:23;;;;;;;;;;;2.00;99.90;;;1.02;100.00;98016.41;5068483;28;20629;-37
2022/12/19 06:46:51;;;;;;;;;;;2.00;99.90;;;1.03;100.00;98015.56;5065094;28;20142;-37
2022/12/19 06:49:17;;;;;;;;;;;2.00;99.90;;;1.05;100.00;98003.44;5067180;28;19943;-37
2022/12/19 06:51:42;;;;;;;;;;;2.10;99.90;;;1.11;100.00;98019.09;5068111;28;20371;-36
2022/12/19 06:54:11;;;;;;;;;;;2.10;99.90;;;1.15;100.00;98018.28;5062370;28;19920;-36
2022/12/19 06:56:38;;;;;;;;;;;2.20;99.90;;;1.17;100.00;98015.69;5059528;28;19924;-36
2022/12/19 06:59:05;;;;;;;;;;;2.20;99.90;;;1.20;100.00;98023.50;5069930;28;19924;-36
2022/12/19 07:01:43;;;;;;;;;;;2.20;99.90;;;1.15;100.00;98002.69;5066520;28;20029;-37
2022/12/19 07:04:09;;;;;;;;;;;2.20;99.90;;;1.19;100.00;98011.41;5067574;28;20364;-36
2022/12/19 07:06:35;;;;;;;;;;;2.30;99.90;;;1.32;100.00;98021.91;5064647;28;19916;-36
2022/12/19 07:09:01;;;;;;;;;;;2.30;99.90;;;1.35;100.00;98018.47;5067878;28;19924;-37
2022/12/19 07:11:26;;;;;;;;;;;2.40;99.90;;;1.37;100.00;98010.69;5067129;28;20003;-36
2022/12/19 07:13:52;;;;;;;;;;;2.40;99.90;;;1.38;100.00;98015.88;5071345;28;19928;-36
2022/12/19 07:16:17;;;;;;;;;;;2.40;99.90;;;1.40;100.00;98008.13;5068585;28;20044;-36
2022/12/19 07:18:43;;;;;;;;;;;2.40;99.90;;;1.42;100.00;98006.38;5068753;28;20397;-36
2022/12/19 07:21:10;;;;;;;;;;;2.40;99.90;;;1.43;100.00;98013.34;5072514;28;19917;-36
2022/12/19 07:23:36;;;;;;;;;;;2.50;99.90;;;1.45;100.00;98012.50;5067356;28;19916;-36
2022/12/19 07:26:02;;;;;;;;;;;2.50;99.90;;;1.47;100.00;98013.41;5071299;28;20049;-36
2022/12/19 07:28:28;;;;;;;;;;;2.50;99.90;;;1.50;100.00;98007.34;5068127;28;19924;-36
2022/12/19 07:30:53;;;;;;;;;;;2.50;99.90;;;1.60;100.00;98018.69;5067529;28;19924;-36
2022/12/19 07:33:19;;;;;;;;;;;2.60;99.90;;;1.61;100.00;98013.50;5064218;28;20747;-36
2022/12/19 07:35:44;;;;;;;;;;;2.60;99.90;;;1.71;100.00;98017.06;5063190;28;20046;-36
2022/12/19 07:38:10;;;;;;;;;;;2.70;99.90;;;1.76;100.00;98017.97;5070069;28;19924;-36
2022/12/19 07:40:36;;;;;;;;;;;2.80;99.90;;;1.75;100.00;98025.75;5061836;28;20118;-36
2022/12/19 07:43:03;;;;;;;;;;;2.80;99.90;;;1.82;100.00;98037.97;5082605;28;20027;-37
2022/12/19 07:45:29;;;;;;;;;;;2.80;99.90;;;1.89;100.00;98026.75;5064514;28;19943;-36
2022/12/19 07:47:55;;;;;;;;;;;2.90;99.90;;;1.89;100.00;98022.41;5070457;28;20420;-37
2022/12/19 07:50:20;;;;;;;;;;;2.90;99.90;;;1.98;100.00;98024.19;5081989;22;19936;-42
2022/12/19 07:52:46;;;;;;;;;;;3.00;99.90;;;2.04;100.00;98020.75;5038681;28;19928;-39
2022/12/19 07:55:12;;;;;;;;;;;3.00;99.90;;;2.06;100.00;98021.66;5034640;28;19925;-40
2022/12/19 07:57:38;;;;;;;;;;;3.10;99.90;;;2.11;100.00;98027.75;5019436;28;19978;-40
2022/12/19 08:00:05;;;;;;;;;;;3.10;99.90;;;2.15;100.00;98023.44;5036341;28;20668;-39
2022/12/19 08:02:30;;;;;;;;;;;3.10;99.90;;;2.17;100.00;98022.59;5032304;28;19925;-40
2022/12/19 08:04:56;;;;;;;;;;;3.20;99.90;;;2.20;100.00;98021.75;5032056;28;19955;-40
2022/12/19 08:07:22;;;;;;;;;;;3.20;99.90;;;2.22;100.00;98027.81;5039123;28;20016;-40
2022/12/19 08:09:47;;;;;;;;;;;3.20;99.90;;;2.23;100.00;98026.97;5037535;28;19921;-40
2022/12/19 08:12:13;;;;;;;;;;;3.20;99.90;;;2.27;100.00;98029.59;5038381;28;19971;-40
2022/12/19 08:14:38;;;;;;;;;;;3.30;99.90;;;2.32;100.00;98033.97;5036317;28;19921;-40
2022/12/19 08:17:04;;;;;;;;;;;3.30;99.90;;;2.37;100.00;98040.94;5028802;28;19925;-40
2022/12/19 08:19:30;;;;;;;;;;;3.40;99.90;;;2.45;100.00;98041.84;5034765;28;19979;-40
2022/12/19 08:21:55;;;;;;;;;;;3.40;99.90;;;2.54;100.00;98046.22;5036363;28;20399;-40
2022/12/19 08:24:21;;;;;;;;;;;3.50;99.90;;;2.61;100.00;98047.16;5036766;28;19924;-40
2022/12/19 08:26:46;;;;;;;;;;;3.60;99.90;;;2.67;100.00;98057.56;5035028;28;19944;-41
2022/12/19 08:29:12;;;;;;;;;;;3.60;99.90;;;2.71;100.00;98055.84;5037091;28;19925;-41
2022/12/19 08:31:38;;;;;;;;;;;3.60;99.90;;;2.67;100.00;98047.16;5037477;28;19970;-41
2022/12/19 08:34:03;;;;;;;;;;;3.70;99.90;;;2.70;100.00;98052.41;5025879;28;20395;-41
2022/12/19 08:36:29;;;;;;;;;;;3.70;99.90;;;2.72;100.00;98052.41;5034551;28;20444;-41
2022/12/19 08:38:55;;;;;;;;;;;3.70;99.90;;;2.71;100.00;98035.91;5031369;28;19952;-40
2022/12/19 08:41:21;;;;;;;;;;;3.70;99.90;;;2.80;100.00;98048.97;5034642;28;19925;-40
2022/12/19 08:43:50;;;;;;;;;;;3.80;99.90;;;2.81;100.00;98037.69;5037374;28;20015;-41
2022/12/19 08:46:17;;;;;;;;;;;3.80;99.90;;;2.89;100.00;98047.25;5029156;28;19924;-40
2022/12/19 08:48:43;;;;;;;;;;;3.80;99.90;;;2.94;100.00;98041.19;5033135;28;19936;-41
2022/12/19 08:51:09;;;;;;;;;;;3.90;99.90;;;3.00;100.00;98046.44;5033193;28;19925;-41
2022/12/19 08:53:37;;;;;;;;;;;3.90;99.90;;;3.04;100.00;98040.38;5034933;28;19924;-43
2022/12/19 08:56:06;;;;;;;;;;;4.00;99.90;;;3.10;100.00;98042.13;5028501;28;19924;-41
2022/12/19 08:58:32;;;;;;;;;;;4.00;99.90;;;3.14;100.00;98041.28;5033926;28;19964;-41
2022/12/19 09:00:59;;;;;;;;;;;4.10;99.90;;;3.17;100.00;98036.06;5031065;28;20016;-41
2022/12/19 09:03:25;;;;;;;;;;;4.10;99.90;;;3.23;100.00;98043.91;5028132;28;20598;-41
2022/12/19 09:05:56;;;;;;;;;;;4.20;99.90;;;3.27;100.00;98033.47;5030909;28;19925;-41
2022/12/19 09:08:21;;;;;;;;;;;4.20;99.90;;;3.21;100.00;98032.63;5023575;28;20221;-41
2022/12/19 09:10:47;;;;;;;;;;;4.20;99.90;;;3.23;100.00;98030.88;5032802;28;20123;-41
2022/12/19 09:13:12;;;;;;;;;;;4.20;99.90;;;3.28;100.00;98035.22;5016464;28;20011;-41
2022/12/19 09:15:38;;;;;;;;;;;4.20;99.90;;;3.32;100.00;98027.41;5030827;28;19920;-41
2022/12/19 09:18:04;;;;;;;;;;;4.20;99.90;;;3.34;100.00;98015.25;5036517;28;19940;-40
2022/12/19 09:20:29;;;;;;;;;;;4.30;99.90;;;3.35;100.00;98013.50;5033208;28;20412;-40
2022/12/19 09:22:55;;;;;;;;;;;4.30;99.90;;;3.43;100.00;98030.91;5030921;28;19932;-40
2022/12/19 09:25:20;;;;;;;;;;;4.30;99.90;;;3.53;100.00;98036.13;5036391;28;20694;-40
2022/12/19 09:27:46;;;;;;;;;;;4.40;99.90;;;3.53;100.00;98029.16;5029927;28;19935;-40
2022/12/19 09:30:12;;;;;;;;;;;4.50;99.90;;;3.58;100.00;98030.06;5031510;28;19925;-40
2022/12/19 09:32:38;;;;;;;;;;;4.50;99.90;;;3.63;100.00;98032.69;5035642;28;20661;-40
2022/12/19 09:35:04;;;;;;;;;;;4.60;99.90;;;3.75;100.00;98035.28;5030413;28;19921;-40
2022/12/19 09:37:30;;;;;;;;;;;4.70;99.90;;;3.86;100.00;98030.06;5031736;28;19973;-40
2022/12/19 09:39:55;;;;;;;;;;;4.80;99.90;;;3.98;100.00;98027.47;5036998;28;19924;-40
2022/12/19 09:42:35;;;;;;;;;;;4.90;99.90;;;4.07;100.00;98026.56;5030581;28;19921;-41
2022/12/19 09:45:22;;;;;;;;;;;5.00;99.90;;;4.14;100.00;98024.81;5019675;28;20247;-41
2022/12/19 09:47:48;;;;;;;;;;;5.10;99.90;;;4.08;100.00;98017.88;5035849;28;19928;-42
2022/12/19 09:50:29;;;;;;;;;;;5.10;99.90;;;4.23;100.00;98022.19;5035843;28;20392;-45
2022/12/19 09:53:12;;;;;;;;;;;5.10;99.90;;;4.21;100.00;97997.84;5024637;28;19960;-41
2022/12/19 09:55:39;;;;;;;;;;;5.20;99.90;;;4.45;100.00;98025.66;5028795;28;20007;-41
2022/12/19 09:58:18;;;;;;;;;;;5.40;99.90;;;4.53;100.00;98015.19;5032695;28;19928;-40
2022/12/19 10:00:48;;;;;;;;;;;5.40;99.90;;;4.55;100.00;98016.91;5033793;28;19994;-40
2022/12/19 10:03:27;;;;;;;;;;;5.50;99.90;;;4.61;100.00;98018.63;5016724;28;20438;-40
2022/12/19 10:05:55;;;;;;;;;;;5.50;99.90;;;4.56;100.00;98015.19;5021895;28;20020;-41
2022/12/19 10:08:25;;;;;;;;;;;5.60;99.90;;;4.58;100.00;98008.19;5019257;28;19967;-40
2022/12/19 10:10:58;;;;;;;;;;;5.60;99.90;;;4.70;100.00;98012.50;5032606;28;20012;-40
2022/12/19 10:14:01;;;;;;;;;;;5.60;99.90;;;4.80;100.00;98003.75;5030405;28;20168;-41
2022/12/19 10:16:39;;;;;;;;;;;5.80;99.90;;;4.86;100.00;97992.38;5030699;28;20387;-42
2022/12/19 10:19:07;;;;;;;;;;;5.90;99.90;;;4.95;100.00;97989.72;5012101;28;20031;-43
2022/12/19 10:21:42;;;;;;;;;;;5.90;99.90;;;4.93;100.00;97986.25;5018465;28;20015;-44
2022/12/19 10:24:39;;;;;;;;;;;5.90;99.90;;;4.90;100.00;97988.88;5034947;28;19921;-43
2022/12/19 10:27:17;;;;;;;;;;;5.90;99.90;;;4.90;100.00;97984.53;5014375;28;19925;-42
2022/12/19 10:30:03;;;;;;;;;;;5.90;99.90;;;4.95;100.00;97993.22;5012051;28;19929;-42
2022/12/19 10:32:58;;;;;;;;;;;5.90;99.90;;;4.88;100.00;97983.69;5036495;28;19921;-45
2022/12/19 10:35:32;;;;;;;;;;;5.90;99.90;;;4.92;100.00;97979.31;5020469;28;21002;-44
2022/12/19 10:38:10;;;;;;;;;;;5.90;99.90;;;4.90;100.00;97973.19;5024431;28;19932;-45
2022/12/19 10:40:47;;;;;;;;;;;5.90;99.90;;;4.88;100.00;97969.72;5030312;28;19964;-42
2022/12/19 10:43:50;;;;;;;;;;;5.90;99.90;;;4.92;100.00;97963.63;5025160;28;19925;-45
2022/12/19 10:46:46;;;;;;;;;;;5.90;99.90;;;4.83;100.00;97971.50;5018051;28;20198;-41
2022/12/19 10:49:15;;;;;;;;;;;5.80;99.90;;;4.81;100.00;97975.88;5018916;28;19931;-42
2022/12/19 10:51:52;;;;;;;;;;;5.70;99.90;;;4.78;100.00;97981.97;5026400;28;20324;-43
2022/12/19 10:54:17;;;;;;;;;;;5.70;99.90;;;4.70;100.00;97973.28;5024248;28;19925;-43
2022/12/19 10:56:43;;;;;;;;;;;5.60;99.90;;;4.63;100.00;97976.81;5025317;28;19929;-42
2022/12/19 10:59:17;;;;;;;;;;;5.60;99.90;;;4.63;100.00;97972.47;5023083;28;20360;-43
2022/12/19 11:01:43;;;;;;;;;;;5.60;99.90;;;4.62;100.00;97952.44;5033840;28;19925;-42
2022/12/19 11:04:29;;;;;;;;;;;5.60;99.90;;;4.73;100.00;97941.94;5034882;28;19917;-43
2022/12/19 11:07:01;;;;;;;;;;;5.70;99.90;;;4.77;100.00;97939.31;5015739;28;19927;-42
2022/12/19 11:09:35;;;;;;;;;;;5.70;99.90;;;4.79;100.00;97931.44;5035204;28;19932;-43
2022/12/19 11:12:11;;;;;;;;;;;5.70;99.90;;;4.80;100.00;97933.19;5021840;28;19928;-44
2022/12/19 11:14:41;;;;;;;;;;;5.70;99.90;;;4.85;100.00;97938.41;5024438;28;19932;-45
2022/12/19 11:17:23;;;;;;;;;;;5.80;99.90;;;4.89;100.00;97940.13;5025364;28;19931;-44
2022/12/19 11:19:49;;;;;;;;;;;5.70;99.90;;;4.90;100.00;97934.88;5026927;28;20011;-42
2022/12/19 11:22:21;;;;;;;;;;;5.80;99.90;;;4.90;100.00;97931.38;5026243;28;19978;-44
2022/12/19 11:24:49;;;;;;;;;;;5.80;99.90;;;4.91;100.00;97930.50;5013768;28;19924;-45
2022/12/19 11:27:31;;;;;;;;;;;5.80;99.90;;;4.77;100.00;97902.72;5022404;28;20285;-43
2022/12/19 11:29:57;;;;;;;;;;;5.80;99.90;;;4.95;100.00;97922.66;5031292;28;19955;-42
2022/12/19 11:32:38;;;;;;;;;;;5.90;99.90;;;5.05;100.00;97923.44;5035585;28;20955;-43
2022/12/19 11:35:14;;;;;;;;;;;6.00;99.90;;;4.96;100.00;97900.00;5031120;28;19921;-42
2022/12/19 11:38:03;;;;;;;;;;;6.00;99.90;;;5.14;100.00;97920.78;5025672;28;20219;-43